LICT/TPS METAR and TAF weather

Enter ICAO airport designator
Station Type Date Time Source
LICT METAR 2019/12/10 05:55 UTC NOAA

LICT 100555Z 29018KT 9999 SCT017 14/09 Q1008


Station Type Date Time Source
LICT Decoded METAR 2019/12/10 05:55 UTC NOAA

Trapani / Birgi, Italy (LICT) 37-55N 012-30E 14M
Dec 10, 2019 - 12:55 AM EST / 2019.12.10 0555 UTC
Wind: from the WNW (290 degrees) at 21 MPH (18 KT):0
Visibility: greater than 7 mile(s):0
Sky conditions: partly cloudy
Temperature: 57 F (14 C)
Dew Point: 48 F (9 C)
Relative Humidity: 71%
Pressure (altimeter): 29.77 in. Hg (1008 hPa)
ob: LICT 100555Z 29018KT 9999 SCT017 14/09 Q1008
cycle: 6

Station Type Date Time Source
LICT TAF 2019/01/11 09:24 UTC NOAA

TAF TAF LICT 110800Z 1109/1121 33012KT 9999 SCT025

Example: see airport list